Terminal Aerodrome Forecast
Issued by NWS Dodge City, KS

Home | Current Version | Previous Version | Graphics & Text | Print | Product List | Glossary Off
Versions: 1 2 3 4 5 6 7 8 9 10 11 12 13 14 15 16 17 18 19 20 21 22 23 24 25 26 27 28 29 30 31 32 33

000
FTUS43 KDDC 291347 AAD
TAFDDC
TAF AMD
KDDC 291347Z 2914/3012 05013KT P6SM -TSRA OVC004CB
      TEMPO 2914/2918 3SM -TSRA BR OVC003CB
     FM300000 04012G22KT 5SM -SHRA OVC003
     FM300600 32013G23KT P6SM VCSH OVC008
     FM300900 30015G25KT P6SM VCSH BKN008=

USA.gov is the U.S. government's official web portal to all federal, state and local government web resources and services.